Time;durP1;ratioP1;P1;durP2;ratioP2;P2;SDS_P1;SDS_P2;PMS_P1;PMS_P2;Temp;Humidity;BMP_temperature;BMP_pressure;BME280_temperature;BME280_humidity;BME280_pressure;Samples;Min_cycle;Max_cycle;Signal;HPM_P1;HPM_P2
2023/04/21 04:30:32;;;;;;;21.23;10.90;;;9.10;63.50;;;;;;5891027;23;20051;-77
2023/04/21 04:32:57;;;;;;;17.88;10.23;;;9.10;62.70;;;;;;4953463;28;20027;-77
2023/04/21 04:35:23;;;;;;;19.25;11.02;;;9.10;62.40;;;;;;4938014;29;20094;-77
2023/04/21 04:37:49;;;;;;;21.08;10.95;;;9.00;63.30;;;;;;4940262;29;20035;-77
2023/04/21 04:40:15;;;;;;;23.38;10.35;;;9.00;63.30;;;;;;4947622;29;20035;-77
2023/04/21 04:42:41;;;;;;;20.42;10.57;;;8.90;63.10;;;;;;4938167;29;20397;-76
2023/04/21 04:45:08;;;;;;;18.05;10.90;;;8.90;62.90;;;;;;4921778;29;20070;-76
2023/04/21 04:47:37;;;;;;;23.88;11.65;;;8.90;62.80;;;;;;4938946;29;20103;-76
2023/04/21 04:50:03;;;;;;;16.90;9.93;;;8.90;63.00;;;;;;4937426;28;20491;-77
2023/04/21 04:52:29;;;;;;;21.35;10.40;;;8.80;62.90;;;;;;4938897;29;20035;-77
2023/04/21 04:54:54;;;;;;;20.35;10.60;;;8.80;63.10;;;;;;4938852;29;20051;-77
2023/04/21 04:57:20;;;;;;;19.33;10.43;;;8.80;64.50;;;;;;4938962;29;20038;-77
2023/04/21 04:59:45;;;;;;;26.45;11.52;;;8.70;65.20;;;;;;4938732;29;20102;-76
2023/04/21 05:02:11;;;;;;;22.92;11.70;;;8.70;64.80;;;;;;4949873;28;20061;-76
2023/04/21 05:04:37;;;;;;;23.23;12.43;;;8.70;64.50;;;;;;4939645;29;20043;-76
2023/04/21 05:07:06;;;;;;;21.20;11.32;;;8.70;64.80;;;;;;4955800;29;20067;-76
2023/04/21 05:09:32;;;;;;;21.20;10.27;;;8.70;64.60;;;;;;4941386;29;20126;-76
2023/04/21 05:11:58;;;;;;;21.52;11.48;;;8.70;63.40;;;;;;4958080;29;20031;-76
2023/04/21 05:14:23;;;;;;;22.35;11.10;;;8.70;63.60;;;;;;4957991;29;20034;-76
2023/04/21 05:16:49;;;;;;;20.75;10.82;;;8.70;64.70;;;;;;4948674;29;20043;-77
2023/04/21 05:19:14;;;;;;;28.48;13.82;;;8.70;65.00;;;;;;4941782;29;20023;-77
2023/04/21 05:21:40;;;;;;;22.77;10.52;;;8.60;65.60;;;;;;4957922;29;20031;-76
2023/04/21 05:24:06;;;;;;;20.15;10.68;;;8.60;65.30;;;;;;4940293;29;20027;-76
2023/04/21 05:26:31;;;;;;;25.50;11.63;;;8.60;65.40;;;;;;4940174;29;20063;-76
2023/04/21 05:28:57;;;;;;;23.50;11.23;;;8.60;64.90;;;;;;4957814;29;20091;-76
2023/04/21 05:31:25;;;;;;;20.85;11.73;;;8.60;65.60;;;;;;4957611;29;20074;-78
2023/04/21 05:33:51;;;;;;;28.35;12.02;;;8.60;66.10;;;;;;4957333;29;20427;-80
2023/04/21 05:36:19;;;;;;;28.25;13.30;;;8.70;65.40;;;;;;4945013;29;20035;-83
2023/04/21 05:38:44;;;;;;;26.85;12.15;;;8.70;64.90;;;;;;4940176;29;20094;-79
2023/04/21 05:41:10;;;;;;;22.70;11.32;;;8.80;65.00;;;;;;4957641;29;20554;-79
2023/04/21 05:43:36;;;;;;;24.38;12.52;;;8.80;65.30;;;;;;4947593;29;20028;-78
2023/04/21 05:46:08;;;;;;;21.50;11.85;;;8.90;63.40;;;;;;4955777;29;20027;-82
2023/04/21 05:48:34;;;;;;;27.30;12.57;;;8.90;63.20;;;;;;4950651;29;20055;-79
2023/04/21 05:51:11;;;;;;;24.48;12.00;;;8.90;64.30;;;;;;4956933;29;20122;-79
2023/04/21 05:53:38;;;;;;;25.80;12.77;;;8.90;64.50;;;;;;4945672;29;20083;-80
2023/04/21 05:56:04;;;;;;;25.65;12.57;;;8.90;64.60;;;;;;4921213;29;20094;-80
2023/04/21 05:58:30;;;;;;;25.20;12.98;;;8.90;63.60;;;;;;4946667;28;20344;-80
2023/04/21 06:00:56;;;;;;;27.13;12.05;;;8.90;63.40;;;;;;4943787;29;20054;-79
2023/04/21 06:03:21;;;;;;;29.27;13.25;;;9.00;63.60;;;;;;4941640;29;20019;-79
2023/04/21 06:05:51;;;;;;;28.67;12.55;;;9.00;64.10;;;;;;4949187;28;20067;-80
2023/04/21 06:08:17;;;;;;;23.55;12.15;;;9.00;63.40;;;;;;4938032;29;20070;-79
2023/04/21 06:10:43;;;;;;;28.67;12.48;;;9.00;63.60;;;;;;4943501;29;20036;-79
2023/04/21 06:13:08;;;;;;;27.95;12.68;;;9.10;63.00;;;;;;4943774;28;20031;-80
2023/04/21 06:15:34;;;;;;;27.05;13.55;;;9.10;63.50;;;;;;4958642;28;20035;-75
2023/04/21 06:18:00;;;;;;;25.30;12.93;;;9.10;63.20;;;;;;4946150;29;20038;-78
2023/04/21 06:20:25;;;;;;;24.80;11.90;;;9.20;62.90;;;;;;4941704;29;20075;-79
2023/04/21 06:22:51;;;;;;;27.13;12.82;;;9.20;63.10;;;;;;4941505;29;20027;-78
2023/04/21 06:25:17;;;;;;;30.27;15.27;;;9.20;63.40;;;;;;4949123;28;20567;-78
2023/04/21 06:27:44;;;;;;;30.40;16.00;;;9.20;63.70;;;;;;4947663;28;20031;-78
2023/04/21 06:30:10;;;;;;;27.83;16.08;;;9.20;62.80;;;;;;4943003;29;20400;-78
2023/04/21 06:32:36;;;;;;;33.15;18.67;;;9.20;63.80;;;;;;4943201;29;20031;-78
2023/04/21 06:35:01;;;;;;;35.67;18.45;;;9.20;63.60;;;;;;4960437;29;20031;-78
2023/04/21 06:37:27;;;;;;;39.08;19.23;;;9.20;63.90;;;;;;4949601;29;20028;-78
2023/04/21 06:39:53;;;;;;;37.67;18.02;;;9.30;64.10;;;;;;4924104;29;20479;-78
2023/04/21 06:42:18;;;;;;;36.78;20.13;;;9.30;63.30;;;;;;4950661;29;20557;-78
2023/04/21 06:44:44;;;;;;;36.05;18.73;;;9.40;63.90;;;;;;4941593;29;20023;-78
2023/04/21 06:47:09;;;;;;;35.15;18.80;;;9.40;64.20;;;;;;4939111;28;20043;-78
2023/04/21 06:49:36;;;;;;;33.40;18.27;;;9.50;64.40;;;;;;4931120;29;20040;-83
2023/04/21 06:52:02;;;;;;;38.72;19.33;;;9.60;63.70;;;;;;4940281;29;20126;-81
2023/04/21 06:54:28;;;;;;;33.45;18.55;;;9.70;63.20;;;;;;4931625;28;21047;-80
2023/04/21 06:56:54;;;;;;;33.60;17.67;;;9.70;63.60;;;;;;4977347;28;20054;-79
2023/04/21 06:59:20;;;;;;;40.40;18.13;;;9.80;63.30;;;;;;4962315;28;20034;-76
2023/04/21 07:01:50;;;;;;;35.33;18.95;;;9.90;63.60;;;;;;4968756;28;20030;-79
2023/04/21 07:04:19;;;;;;;33.35;17.52;;;9.90;63.20;;;;;;4942867;29;20034;-78
2023/04/21 07:06:45;;;;;;;30.80;16.35;;;10.00;62.90;;;;;;4960214;29;20030;-78
2023/04/21 07:09:11;;;;;;;30.67;16.63;;;10.00;62.30;;;;;;4956593;29;20054;-78
2023/04/21 07:11:37;;;;;;;31.83;15.50;;;10.10;63.20;;;;;;4951786;29;20024;-77
2023/04/21 07:14:08;;;;;;;32.15;15.98;;;10.10;63.00;;;;;;4939159;29;20027;-81
2023/04/21 07:16:34;;;;;;;26.90;14.85;;;10.30;63.40;;;;;;4940918;29;20024;-80
2023/04/21 07:18:59;;;;;;;29.52;15.55;;;10.30;62.50;;;;;;4942344;29;20030;-78
2023/04/21 07:21:25;;;;;;;25.40;14.57;;;10.30;62.60;;;;;;4950746;29;20075;-79
2023/04/21 07:23:50;;;;;;;31.90;16.33;;;10.40;62.80;;;;;;4940688;29;20027;-76
2023/04/21 07:26:17;;;;;;;24.33;15.55;;;10.60;62.50;;;;;;4940429;29;20043;-77
2023/04/21 07:28:42;;;;;;;27.30;14.45;;;10.90;60.90;;;;;;4939689;29;20487;-77
2023/04/21 07:31:08;;;;;;;28.63;15.18;;;11.20;60.20;;;;;;4930663;29;20071;-77
2023/04/21 07:33:33;;;;;;;30.17;15.85;;;11.80;59.10;;;;;;4948865;29;20066;-77
2023/04/21 07:35:59;;;;;;;24.30;14.32;;;11.80;57.40;;;;;;4958748;29;20034;-76
2023/04/21 07:38:25;;;;;;;24.67;13.95;;;11.80;57.70;;;;;;4955755;29;20095;-77
2023/04/21 07:40:51;;;;;;;27.58;13.88;;;12.10;57.20;;;;;;4940493;29;20047;-77
2023/04/21 07:43:18;;;;;;;24.20;14.38;;;12.50;55.70;;;;;;4941633;28;20040;-78
2023/04/21 07:45:44;;;;;;;25.10;13.70;;;13.40;54.60;;;;;;4940407;29;20024;-80
2023/04/21 07:48:10;;;;;;;20.77;13.65;;;14.10;51.70;;;;;;4946976;29;20027;-78
2023/04/21 07:50:36;;;;;;;23.23;13.27;;;14.50;51.20;;;;;;4924564;28;20478;-84
2023/04/21 07:53:02;;;;;;;21.52;13.93;;;16.40;46.60;;;;;;4931376;29;20036;-78
2023/04/21 07:55:28;;;;;;;21.55;13.25;;;18.40;40.80;;;;;;4957014;29;20059;-78
2023/04/21 07:57:54;;;;;;;20.30;13.60;;;20.00;38.30;;;;;;4941488;28;20118;-77
2023/04/21 08:00:20;;;;;;;17.80;13.63;;;20.90;35.60;;;;;;4927825;28;20116;-78
2023/04/21 08:02:45;;;;;;;17.48;14.23;;;22.20;34.10;;;;;;4938656;29;20063;-78
2023/04/21 08:05:11;;;;;;;18.52;13.48;;;23.50;32.40;;;;;;4940937;29;20037;-78
2023/04/21 08:07:37;;;;;;;19.10;14.50;;;24.70;32.30;;;;;;4938323;29;20498;-79
2023/04/21 08:10:04;;;;;;;17.20;14.20;;;25.80;29.80;;;;;;4958752;29;20105;-76
2023/04/21 08:12:29;;;;;;;17.88;13.80;;;26.80;28.20;;;;;;4940887;28;20114;-76
2023/04/21 08:14:55;;;;;;;17.23;13.30;;;27.40;27.90;;;;;;4937665;29;20070;-78
2023/04/21 08:17:21;;;;;;;18.77;13.77;;;27.90;26.90;;;;;;4951663;29;20111;-76
2023/04/21 08:19:46;;;;;;;21.83;13.55;;;28.40;26.20;;;;;;4950948;28;20126;-75
2023/04/21 08:22:12;;;;;;;16.73;13.50;;;28.90;26.20;;;;;;4939421;29;20032;-75
2023/04/21 08:24:37;;;;;;;15.20;13.13;;;29.50;25.20;;;;;;4952764;29;20027;-75
2023/04/21 08:27:03;;;;;;;15.48;13.25;;;30.10;25.30;;;;;;4939082;29;20034;-75
2023/04/21 08:29:29;;;;;;;15.98;14.27;;;30.50;24.20;;;;;;4952094;29;20035;-75
2023/04/21 08:31:55;;;;;;;16.63;14.02;;;30.00;24.30;;;;;;4932399;29;20142;-76
2023/04/21 08:34:21;;;;;;;14.77;13.05;;;29.80;23.30;;;;;;4952469;28;20376;-76
2023/04/21 08:36:46;;;;;;;16.02;14.27;;;30.20;24.20;;;;;;4941510;29;20040;-75
2023/04/21 08:39:13;;;;;;;14.07;12.65;;;30.60;23.60;;;;;;4948070;29;20028;-75
2023/04/21 08:41:40;;;;;;;15.88;14.00;;;30.90;23.60;;;;;;4939518;29;20087;-75
2023/04/21 08:44:07;;;;;;;16.60;14.57;;;31.00;22.80;;;;;;4939366;29;20020;-75
2023/04/21 08:46:33;;;;;;;14.77;13.13;;;29.50;24.10;;;;;;4938855;29;20111;-75
2023/04/21 08:49:00;;;;;;;16.77;13.45;;;27.70;23.30;;;;;;4939064;29;20098;-75
2023/04/21 08:51:27;;;;;;;14.30;11.80;;;25.60;26.80;;;;;;4939078;29;20089;-78
2023/04/21 08:53:54;;;;;;;16.30;12.45;;;24.50;27.30;;;;;;4936785;29;20458;-78
2023/04/21 08:56:20;;;;;;;13.00;9.82;;;23.60;29.00;;;;;;4937869;29;20059;-77
2023/04/21 08:58:45;;;;;;;17.50;12.45;;;23.70;29.50;;;;;;4938989;29;20035;-78
2023/04/21 09:01:11;;;;;;;15.70;13.15;;;23.10;30.10;;;;;;4938924;29;20554;-78
2023/04/21 09:03:37;;;;;;;14.98;11.43;;;23.60;29.80;;;;;;4944021;29;20030;-78
2023/04/21 09:06:08;;;;;;;16.50;12.85;;;24.40;29.50;;;;;;4936883;29;20028;-78
2023/04/21 09:08:38;;;;;;;13.77;11.02;;;25.20;26.70;;;;;;4939084;29;20024;-78
2023/04/21 09:11:04;;;;;;;15.05;11.75;;;26.20;27.00;;;;;;4931745;28;20042;-78
2023/04/21 09:13:34;;;;;;;12.55;11.25;;;26.40;25.20;;;;;;4977673;28;20027;-78
2023/04/21 09:16:02;;;;;;;14.10;10.63;;;26.90;25.70;;;;;;4941043;29;20087;-78
2023/04/21 09:18:35;;;;;;;12.65;10.77;;;27.30;26.20;;;;;;4939108;29;20074;-78
2023/04/21 09:21:06;;;;;;;11.70;10.40;;;27.50;24.00;;;;;;4938692;29;20040;-78
2023/04/21 09:23:45;;;;;;;10.30;8.65;;;27.60;22.70;;;;;;4941227;29;20055;-78
2023/04/21 09:26:11;;;;;;;10.52;9.45;;;27.30;22.30;;;;;;4921751;29;20054;-78
2023/04/21 09:28:40;;;;;;;13.00;10.40;;;27.30;22.90;;;;;;4938578;29;20035;-78
2023/04/21 09:31:14;;;;;;;11.50;9.88;;;28.00;23.20;;;;;;4937075;29;20060;-77
2023/04/21 09:33:44;;;;;;;11.25;10.13;;;28.20;22.80;;;;;;4948693;29;20031;-78
2023/04/21 09:36:29;;;;;;;13.77;10.85;;;28.20;22.50;;;;;;4954812;29;20191;-78
2023/04/21 09:38:56;;;;;;;12.48;10.40;;;27.00;23.00;;;;;;4921441;29;20070;-78
2023/04/21 09:41:23;;;;;;;11.95;9.93;;;27.60;24.20;;;;;;4949039;29;20562;-77
2023/04/21 09:43:48;;;;;;;11.65;10.45;;;25.80;24.70;;;;;;4940656;29;20024;-78
2023/04/21 09:46:16;;;;;;;12.00;10.35;;;26.10;25.10;;;;;;4939946;29;20514;-78
2023/04/21 09:48:46;;;;;;;12.38;9.75;;;26.20;24.00;;;;;;4937135;29;20020;-78
2023/04/21 09:51:13;;;;;;;11.90;10.32;;;26.40;25.10;;;;;;4937298;29;20066;-78
2023/04/21 09:53:40;;;;;;;14.52;10.10;;;27.40;24.00;;;;;;4938530;29;20087;-78
2023/04/21 09:56:11;;;;;;;11.55;10.35;;;28.20;23.10;;;;;;4938209;29;20034;-78
2023/04/21 09:58:45;;;;;;;12.10;10.23;;;28.60;22.30;;;;;;4938464;29;20031;-78
2023/04/21 10:01:12;;;;;;;12.40;10.85;;;27.10;23.50;;;;;;4938103;29;20035;-78
2023/04/21 10:03:41;;;;;;;10.70;9.60;;;27.30;24.50;;;;;;4943296;29;20023;-78
2023/04/21 10:06:07;;;;;;;;;;;27.70;23.60;;;;;;4940440;29;20031;-78
2023/04/21 10:08:34;;;;;;;15.23;13.63;;;27.90;23.70;;;;;;4948257;29;19911;-78
2023/04/21 10:11:02;;;;;;;11.75;10.07;;;28.10;23.50;;;;;;4945758;29;20019;-78
2023/04/21 10:13:28;;;;;;;11.98;10.45;;;27.00;22.00;;;;;;4944891;29;20042;-78
2023/04/21 10:16:07;;;;;;;14.05;10.50;;;26.30;22.90;;;;;;4925784;29;20083;-78
2023/04/21 10:18:43;;;;;;;13.38;11.23;;;25.80;25.30;;;;;;4947745;29;20035;-78
2023/04/21 10:21:10;;;;;;;12.35;10.70;;;25.70;25.50;;;;;;4946850;29;20036;-78
2023/04/21 10:23:45;;;;;;;11.30;10.10;;;24.80;24.80;;;;;;4936900;29;20539;-78
2023/04/21 10:26:14;;;;;;;12.65;10.27;;;24.70;26.40;;;;;;4935961;29;20447;-78
2023/04/21 10:29:02;;;;;;;12.77;10.57;;;24.10;27.30;;;;;;4936882;29;20027;-78
2023/04/21 10:31:35;;;;;;;14.00;10.87;;;23.20;27.50;;;;;;4935330;29;20052;-78
2023/04/21 10:36:55;;;;;;;15.27;12.40;;;22.10;29.20;;;;;;4941177;29;20051;-77
2023/04/21 10:39:27;;;;;;;15.23;11.35;;;21.50;29.80;;;;;;4931657;29;20078;-77
2023/04/21 10:41:57;;;;;;;17.27;11.93;;;21.20;31.00;;;;;;4937872;29;20498;-77
2023/04/21 10:44:24;;;;;;;16.33;12.43;;;21.10;32.00;;;;;;4937798;29;20087;-78
2023/04/21 10:46:51;;;;;;;16.48;11.38;;;20.90;32.40;;;;;;4951464;29;20114;-78
2023/04/21 10:49:29;;;;;;;15.35;11.23;;;20.50;30.90;;;;;;4957079;29;20066;-77
2023/04/21 10:52:06;;;;;;;15.70;11.30;;;20.20;32.70;;;;;;4939957;29;20023;-77
2023/04/21 10:54:44;;;;;;;15.13;11.38;;;20.30;32.70;;;;;;4938024;29;20542;-77
2023/04/21 10:57:13;;;;;;;12.38;9.48;;;20.30;32.00;;;;;;4937856;29;20020;-77
2023/04/21 10:59:39;;;;;;;13.65;9.05;;;20.20;32.50;;;;;;4936368;28;20036;-77
2023/04/21 11:02:16;;;;;;;13.50;10.18;;;20.20;32.80;;;;;;4939899;29;20086;-78
2023/04/21 11:04:48;;;;;;;17.38;10.65;;;19.80;32.80;;;;;;4954864;29;20438;-77
2023/04/21 11:07:16;;;;;;;12.40;9.40;;;19.70;32.70;;;;;;4938913;29;20031;-77
2023/04/21 11:09:42;;;;;;;12.57;8.77;;;19.80;32.70;;;;;;4941189;29;20028;-77
2023/04/21 11:12:11;;;;;;;16.35;11.23;;;20.00;33.40;;;;;;4957569;29;20031;-77
2023/04/21 11:14:39;;;;;;;13.88;10.77;;;19.70;31.90;;;;;;4954790;29;20082;-78
2023/04/21 11:17:12;;;;;;;13.25;9.48;;;19.50;33.00;;;;;;4942717;29;20478;-77
2023/04/21 11:19:38;;;;;;;15.18;10.20;;;19.50;33.30;;;;;;4959942;29;20110;-77
2023/04/21 11:22:04;;;;;;;14.07;9.77;;;19.70;33.80;;;;;;4960067;29;20055;-78
2023/04/21 11:24:31;;;;;;;15.10;9.98;;;19.80;34.00;;;;;;4939353;29;20038;-78
2023/04/21 11:26:57;;;;;;;13.63;9.80;;;19.00;32.30;;;;;;4940841;29;20501;-77
2023/04/21 11:29:23;;;;;;;14.75;10.98;;;18.70;33.00;;;;;;4940558;29;20061;-76
2023/04/21 11:31:49;;;;;;;17.40;10.77;;;18.50;33.10;;;;;;4940601;29;20043;-78
2023/04/21 11:34:18;;;;;;;14.98;10.77;;;18.50;33.60;;;;;;4955121;29;20107;-78
2023/04/21 11:36:45;;;;;;;17.20;9.43;;;18.20;34.70;;;;;;4951975;29;20016;-78
2023/04/21 11:39:12;;;;;;;13.90;9.88;;;18.20;35.00;;;;;;4922885;29;20032;-77
2023/04/21 11:41:40;;;;;;;16.25;11.00;;;18.10;35.20;;;;;;4949415;28;20031;-78
2023/04/21 11:44:07;;;;;;;15.55;9.93;;;18.00;36.20;;;;;;4958639;29;20122;-77
2023/04/21 11:46:32;;;;;;;14.02;10.75;;;18.40;35.70;;;;;;4959381;28;20403;-77
2023/04/21 11:49:03;;;;;;;13.32;8.80;;;18.50;34.50;;;;;;4963865;28;20023;-77
2023/04/21 11:51:40;;;;;;;13.98;9.55;;;18.60;34.70;;;;;;4952022;29;20042;-77
2023/04/21 11:54:10;;;;;;;15.50;9.05;;;18.70;35.50;;;;;;4956571;29;20015;-77
2023/04/21 11:56:45;;;;;;;14.73;10.23;;;18.70;35.20;;;;;;4958353;29;20061;-78
2023/04/21 11:59:15;;;;;;;14.10;9.43;;;18.50;34.90;;;;;;4941090;29;20035;-77
2023/04/21 12:01:49;;;;;;;14.75;9.70;;;18.80;35.70;;;;;;4938765;29;20034;-78
2023/04/21 12:04:17;;;;;;;14.57;9.75;;;18.90;35.50;;;;;;4943767;29;20069;-77
2023/04/21 12:06:55;;;;;;;15.32;10.13;;;18.90;35.50;;;;;;4958343;29;20025;-78
2023/04/21 12:09:21;;;;;;;14.77;10.02;;;18.80;35.30;;;;;;4955702;29;20533;-78
2023/04/21 12:11:49;;;;;;;14.30;9.93;;;18.40;34.00;;;;;;4941749;29;20090;-77
2023/04/21 12:14:15;;;;;;;14.93;9.45;;;18.20;34.20;;;;;;4958102;29;20103;-78
2023/04/21 12:16:41;;;;;;;13.90;9.25;;;18.10;34.40;;;;;;4940591;29;20457;-77
2023/04/21 12:19:08;;;;;;;13.43;8.55;;;18.30;34.50;;;;;;4958601;29;20027;-77
2023/04/21 12:21:37;;;;;;;12.77;8.52;;;18.60;34.80;;;;;;4948228;29;20038;-77
2023/04/21 12:24:03;;;;;;;13.27;8.95;;;18.90;35.40;;;;;;4940947;29;20118;-84
2023/04/21 12:26:29;;;;;;;13.85;9.15;;;19.00;33.70;;;;;;4956709;29;20110;-77
2023/04/21 12:28:55;;;;;;;16.20;9.00;;;18.80;33.20;;;;;;4938433;29;20086;-78
2023/04/21 12:31:20;;;;;;;13.60;8.38;;;19.00;34.70;;;;;;4930344;29;20052;-78
2023/04/21 12:33:46;;;;;;;14.30;9.15;;;19.10;34.10;;;;;;4947786;29;20070;-78
2023/04/21 12:36:12;;;;;;;12.73;8.45;;;19.10;33.90;;;;;;4938828;29;20038;-78
2023/04/21 12:38:38;;;;;;;11.30;7.95;;;18.90;34.70;;;;;;4951639;28;20491;-78
2023/04/21 12:41:03;;;;;;;11.80;8.80;;;19.00;35.00;;;;;;4928244;29;20031;-78
2023/04/21 12:43:29;;;;;;;12.52;9.15;;;18.90;33.90;;;;;;4945249;29;20486;-78
2023/04/21 12:45:55;;;;;;;15.73;9.35;;;18.80;33.70;;;;;;4940088;29;20027;-78
2023/04/21 12:48:21;;;;;;;13.60;9.13;;;18.80;33.70;;;;;;4955502;29;20031;-78
2023/04/21 12:50:46;;;;;;;12.57;8.57;;;18.80;35.40;;;;;;4948939;29;20035;-78
2023/04/21 12:53:12;;;;;;;12.98;8.50;;;19.10;34.50;;;;;;4943110;29;20067;-78
2023/04/21 12:55:38;;;;;;;13.70;9.20;;;19.00;34.30;;;;;;4941047;29;20030;-78
2023/04/21 12:58:04;;;;;;;13.55;9.27;;;18.70;34.10;;;;;;4957549;29;20051;-78
2023/04/21 13:00:30;;;;;;;14.23;9.32;;;18.20;34.90;;;;;;4950867;29;20499;-78
2023/04/21 13:02:56;;;;;;;13.52;8.18;;;18.10;35.50;;;;;;4925918;29;20068;-78
2023/04/21 13:05:21;;;;;;;12.75;8.65;;;18.20;35.50;;;;;;4956082;29;20734;-79
2023/04/21 13:07:47;;;;;;;13.48;8.75;;;18.00;35.60;;;;;;4951763;29;20648;-79
2023/04/21 13:10:13;;;;;;;13.85;8.82;;;18.30;35.30;;;;;;4956307;29;20062;-78
2023/04/21 13:12:40;;;;;;;13.27;9.55;;;18.30;35.50;;;;;;4944126;29;20035;-79
2023/04/21 13:15:06;;;;;;;15.23;9.38;;;18.00;35.20;;;;;;4955203;29;20027;-78
2023/04/21 13:17:32;;;;;;;12.93;9.02;;;18.00;35.70;;;;;;4950442;29;20046;-79
2023/04/21 13:19:57;;;;;;;11.88;7.55;;;18.20;35.60;;;;;;4947111;29;20398;-78
2023/04/21 13:22:23;;;;;;;10.90;7.57;;;18.60;36.60;;;;;;4955456;28;20031;-78
2023/04/21 13:24:48;;;;;;;11.65;7.63;;;18.80;36.00;;;;;;4945782;29;20035;-78
2023/04/21 13:27:14;;;;;;;11.43;8.25;;;18.80;35.60;;;;;;4954175;29;20031;-79
2023/04/21 13:29:40;;;;;;;11.48;7.68;;;18.90;36.30;;;;;;4936598;29;20032;-78
2023/04/21 13:32:07;;;;;;;12.52;8.05;;;19.20;35.50;;;;;;4949267;29;20182;-78
2023/04/21 13:34:33;;;;;;;11.40;8.30;;;19.30;35.00;;;;;;4930734;29;20105;-78
2023/04/21 13:37:00;;;;;;;12.43;7.97;;;19.20;35.40;;;;;;4956208;29;20558;-78
2023/04/21 13:39:25;;;;;;;12.38;7.13;;;19.20;35.70;;;;;;4939418;29;20082;-78
2023/04/21 13:41:51;;;;;;;12.63;7.88;;;19.20;35.60;;;;;;4950356;29;20035;-78
2023/04/21 13:44:20;;;;;;;11.13;8.32;;;18.80;34.50;;;;;;4931998;29;20023;-78
2023/04/21 13:46:45;;;;;;;14.10;7.97;;;18.50;34.70;;;;;;4932500;29;20055;-78
2023/04/21 13:49:11;;;;;;;11.85;7.93;;;18.70;35.50;;;;;;4935930;29;20494;-78
2023/04/21 13:51:37;;;;;;;11.40;8.23;;;18.80;35.30;;;;;;4956558;29;20119;-78
2023/04/21 13:54:02;;;;;;;12.32;7.75;;;19.00;34.70;;;;;;4941218;29;20086;-78
2023/04/21 13:56:28;;;;;;;11.07;7.63;;;18.90;33.60;;;;;;4947385;29;20039;-78
2023/04/21 13:58:54;;;;;;;12.20;8.30;;;19.10;34.70;;;;;;4934505;29;20056;-78
2023/04/21 14:01:20;;;;;;;10.45;6.80;;;18.90;34.60;;;;;;4949560;29;20399;-78
2023/04/21 14:03:45;;;;;;;12.20;8.27;;;18.80;36.00;;;;;;4955858;29;20027;-78
2023/04/21 14:06:11;;;;;;;13.60;7.38;;;18.80;35.60;;;;;;4939517;29;20039;-79
2023/04/21 14:08:37;;;;;;;11.35;8.32;;;18.80;35.50;;;;;;4956593;29;20035;-81
2023/04/21 14:11:03;;;;;;;11.13;7.82;;;18.90;35.50;;;;;;4945594;29;20027;-79
2023/04/21 14:13:29;;;;;;;14.48;8.10;;;18.90;35.40;;;;;;4936488;29;20035;-79
2023/04/21 14:15:55;;;;;;;11.88;7.78;;;18.80;35.10;;;;;;4937801;29;20043;-79
2023/04/21 14:18:22;;;;;;;12.57;7.72;;;19.00;34.50;;;;;;4948589;28;20031;-79
2023/04/21 14:20:47;;;;;;;13.73;8.13;;;18.90;35.70;;;;;;4936353;29;20027;-80
2023/04/21 14:23:13;;;;;;;12.20;7.82;;;19.00;35.90;;;;;;4957173;29;20031;-79
2023/04/21 14:25:38;;;;;;;12.70;7.05;;;18.80;35.20;;;;;;4947453;29;20039;-79
2023/04/21 14:28:07;;;;;;;11.88;7.78;;;18.70;35.90;;;;;;4955890;29;20030;-79
2023/04/21 14:30:35;;;;;;;11.57;7.20;;;18.60;36.70;;;;;;4937672;29;20403;-79
2023/04/21 14:33:01;;;;;;;10.82;7.03;;;18.50;36.70;;;;;;4952649;29;20130;-79
2023/04/21 14:35:26;;;;;;;12.65;8.10;;;18.40;36.30;;;;;;4940023;29;20027;-79
2023/04/21 14:37:52;;;;;;;12.95;8.05;;;18.30;35.70;;;;;;4935765;29;20036;-79
2023/04/21 14:40:18;;;;;;;14.52;8.85;;;18.40;35.60;;;;;;4924454;29;20028;-79
2023/04/21 14:42:44;;;;;;;13.38;7.95;;;18.40;36.00;;;;;;4957515;29;20063;-79
2023/04/21 14:45:10;;;;;;;10.80;7.05;;;18.50;36.50;;;;;;4939434;29;20035;-79
2023/04/21 14:47:36;;;;;;;12.55;7.40;;;18.70;36.90;;;;;;4938519;29;20058;-79
2023/04/21 14:50:04;;;;;;;11.85;7.78;;;18.60;35.60;;;;;;4941153;29;20035;-79
2023/04/21 14:52:30;;;;;;;11.57;7.43;;;18.40;36.20;;;;;;4954826;29;20031;-79
2023/04/21 14:54:56;;;;;;;14.32;8.40;;;18.50;36.70;;;;;;4943088;29;20047;-79
2023/04/21 14:57:22;;;;;;;11.35;7.05;;;18.50;36.50;;;;;;4960237;28;20031;-79
2023/04/21 14:59:51;;;;;;;11.68;8.27;;;18.30;35.90;;;;;;4941465;29;20083;-79
2023/04/21 15:02:19;;;;;;;11.95;7.20;;;18.10;37.30;;;;;;4948079;29;20045;-79
2023/04/21 15:04:45;;;;;;;14.80;8.63;;;18.20;37.40;;;;;;4954915;29;20107;-79
2023/04/21 15:07:11;;;;;;;13.18;8.70;;;17.70;36.20;;;;;;4949245;28;20107;-79
2023/04/21 15:09:38;;;;;;;12.82;8.15;;;17.60;36.40;;;;;;4958013;29;20023;-79
2023/04/21 15:12:04;;;;;;;12.45;8.25;;;17.70;36.40;;;;;;4933685;29;20395;-82
2023/04/21 15:14:29;;;;;;;13.50;9.07;;;17.70;36.60;;;;;;4940754;29;20096;-81
2023/04/21 15:16:55;;;;;;;13.93;8.63;;;18.00;36.30;;;;;;4942497;29;20114;-79
2023/04/21 15:19:21;;;;;;;13.82;8.57;;;17.80;36.20;;;;;;4940819;29;20055;-80
2023/04/21 15:21:47;;;;;;;13.25;8.10;;;17.90;36.90;;;;;;4949753;29;20019;-79
2023/04/21 15:24:12;;;;;;;13.10;7.78;;;18.20;36.40;;;;;;4960050;29;20123;-79
2023/04/21 15:26:38;;;;;;;13.00;7.88;;;18.20;35.60;;;;;;4957095;29;20030;-79
2023/04/21 15:29:04;;;;;;;13.40;9.65;;;18.20;35.90;;;;;;4959935;29;20486;-79
2023/04/21 15:31:30;;;;;;;13.45;8.23;;;18.20;35.70;;;;;;4959208;28;20044;-79
2023/04/21 15:33:56;;;;;;;11.07;7.30;;;18.20;37.60;;;;;;4954489;29;20031;-79
2023/04/21 15:36:22;;;;;;;26.20;9.55;;;18.30;36.50;;;;;;4956125;29;20032;-79
2023/04/21 15:38:47;;;;;;;12.50;8.18;;;18.30;36.60;;;;;;4938845;29;20446;-79
2023/04/21 15:41:15;;;;;;;11.63;7.68;;;18.40;36.20;;;;;;4958192;29;20041;-79
2023/04/21 15:43:40;;;;;;;12.45;7.30;;;18.00;35.90;;;;;;4941533;29;20030;-79
2023/04/21 15:46:11;;;;;;;11.63;7.93;;;17.80;36.60;;;;;;4948694;29;20110;-79
2023/04/21 15:48:38;;;;;;;18.23;9.52;;;17.60;36.50;;;;;;4940446;29;20027;-79
2023/04/21 15:51:04;;;;;;;11.32;7.78;;;17.40;37.20;;;;;;4941056;29;20216;-79
2023/04/21 15:53:32;;;;;;;11.65;8.48;;;17.20;37.30;;;;;;4941429;29;20058;-80
2023/04/21 15:55:58;;;;;;;11.25;7.75;;;17.00;37.70;;;;;;4946827;29;20043;-79
2023/04/21 15:58:24;;;;;;;15.50;8.43;;;17.30;38.20;;;;;;4954227;29;20031;-79
2023/04/21 16:00:50;;;;;;;11.00;7.63;;;17.50;37.90;;;;;;4938596;29;20075;-80
2023/04/21 16:03:15;;;;;;;12.85;8.50;;;17.70;37.50;;;;;;4952234;29;20479;-79
2023/04/21 16:05:41;;;;;;;13.13;8.48;;;17.80;37.70;;;;;;4941153;29;20505;-79
2023/04/21 16:08:07;;;;;;;13.35;8.25;;;17.90;38.10;;;;;;4954558;29;20031;-79
2023/04/21 16:10:34;;;;;;;14.45;9.95;;;18.00;38.20;;;;;;4955300;29;20082;-79
2023/04/21 16:13:00;;;;;;;13.27;8.43;;;17.70;37.00;;;;;;4936267;29;20094;-79
2023/04/21 16:15:25;;;;;;;13.60;8.70;;;17.70;37.90;;;;;;4956172;29;20043;-78
2023/04/21 16:17:52;;;;;;;10.50;7.93;;;17.50;37.10;;;;;;4946746;29;20407;-78
2023/04/21 16:20:18;;;;;;;13.15;8.70;;;17.30;37.40;;;;;;4939660;29;20056;-78
2023/04/21 16:22:43;;;;;;;16.30;9.00;;;17.40;38.10;;;;;;4950020;29;20447;-79
2023/04/21 16:25:14;;;;;;;14.00;8.82;;;17.10;37.90;;;;;;4958568;29;20035;-79
2023/04/21 16:27:40;;;;;;;13.30;9.07;;;17.00;37.90;;;;;;4935175;29;20027;-79
2023/04/21 16:30:06;;;;;;;14.98;10.15;;;17.00;38.40;;;;;;4939149;29;20066;-79
2023/04/21 16:32:34;;;;;;;15.43;10.35;;;16.90;37.70;;;;;;4927515;29;20063;-79
2023/04/21 16:35:00;;;;;;;16.50;9.13;;;17.00;37.50;;;;;;4940330;29;20035;-79
2023/04/21 16:37:26;;;;;;;15.32;9.77;;;17.00;37.60;;;;;;4950498;29;20063;-79
2023/04/21 16:39:51;;;;;;;11.65;8.10;;;17.10;37.50;;;;;;4945192;29;20098;-79
2023/04/21 16:42:17;;;;;;;13.45;8.25;;;17.20;38.20;;;;;;4954563;29;20051;-79
2023/04/21 16:44:42;;;;;;;15.20;9.30;;;17.30;38.00;;;;;;4939443;29;20405;-79
2023/04/21 16:47:08;;;;;;;14.30;9.05;;;17.30;37.70;;;;;;4939635;29;20028;-79
2023/04/21 16:49:34;;;;;;;16.20;8.95;;;17.10;37.60;;;;;;4939275;29;20051;-78
2023/04/21 16:52:00;;;;;;;14.35;8.63;;;17.00;38.00;;;;;;4941878;29;20020;-79
2023/04/21 16:54:25;;;;;;;13.10;7.57;;;16.90;38.50;;;;;;4958401;29;20462;-79
2023/04/21 16:56:51;;;;;;;12.80;8.38;;;16.80;38.60;;;;;;4954459;29;20047;-78
2023/04/21 16:59:18;;;;;;;14.57;8.38;;;16.60;38.60;;;;;;4946274;28;20027;-80
2023/04/21 17:01:44;;;;;;;10.70;7.28;;;16.50;39.30;;;;;;4952150;29;20394;-79
2023/04/21 17:04:12;;;;;;;13.55;7.88;;;16.50;39.40;;;;;;4938358;28;20041;-79